sensor_id;sensor_type;location;lat;lon;timestamp;pressure;altitude;pressure_sealevel;temperature;humidity
10014;BME280;45684;48.358;10.746;2022-10-03T00:01:16;96923.34;;;10.72;100.00
10014;BME280;45684;48.358;10.746;2022-10-03T00:03:53;96925.03;;;10.68;100.00
10014;BME280;45684;48.358;10.746;2022-10-03T00:06:35;96926.28;;;10.57;100.00
10014;BME280;45684;48.358;10.746;2022-10-03T00:09:27;96930.50;;;10.50;100.00
10014;BME280;45684;48.358;10.746;2022-10-03T00:12:10;96933.06;;;10.41;100.00
10014;BME280;45684;48.358;10.746;2022-10-03T00:14:50;96938.47;;;10.41;100.00
10014;BME280;45684;48.358;10.746;2022-10-03T00:17:26;96938.84;;;10.34;100.00
10014;BME280;45684;48.358;10.746;2022-10-03T00:20:03;96943.03;;;10.27;100.00
10014;BME280;45684;48.358;10.746;2022-10-03T00:22:41;96944.78;;;10.17;100.00
10014;BME280;45684;48.358;10.746;2022-10-03T00:25:27;96938.13;;;10.10;100.00
10014;BME280;45684;48.358;10.746;2022-10-03T00:28:08;96946.69;;;9.98;100.00
10014;BME280;45684;48.358;10.746;2022-10-03T00:30:48;96947.50;;;9.99;100.00
10014;BME280;45684;48.358;10.746;2022-10-03T00:33:27;96950.47;;;9.97;100.00
10014;BME280;45684;48.358;10.746;2022-10-03T00:36:05;96950.03;;;9.90;100.00
10014;BME280;45684;48.358;10.746;2022-10-03T00:39:02;96958.22;;;9.85;100.00
10014;BME280;45684;48.358;10.746;2022-10-03T00:41:57;96946.88;;;9.83;100.00
10014;BME280;45684;48.358;10.746;2022-10-03T00:45:09;96950.69;;;9.82;100.00
10014;BME280;45684;48.358;10.746;2022-10-03T00:48:17;96947.91;;;9.87;100.00
10014;BME280;45684;48.358;10.746;2022-10-03T00:50:54;96954.72;;;9.84;100.00
10014;BME280;45684;48.358;10.746;2022-10-03T00:53:46;96948.22;;;9.85;100.00
10014;BME280;45684;48.358;10.746;2022-10-03T00:56:35;96956.91;;;9.82;100.00
10014;BME280;45684;48.358;10.746;2022-10-03T00:59:18;96949.88;;;9.81;100.00
10014;BME280;45684;48.358;10.746;2022-10-03T01:01:49;96957.41;;;9.84;100.00
10014;BME280;45684;48.358;10.746;2022-10-03T01:04:42;96964.94;;;9.87;100.00
10014;BME280;45684;48.358;10.746;2022-10-03T01:07:27;96963.91;;;9.83;100.00
10014;BME280;45684;48.358;10.746;2022-10-03T01:10:09;96972.59;;;9.80;100.00
10014;BME280;45684;48.358;10.746;2022-10-03T01:13:07;96968.22;;;9.84;100.00
10014;BME280;45684;48.358;10.746;2022-10-03T01:15:45;96969.81;;;9.85;100.00
10014;BME280;45684;48.358;10.746;2022-10-03T01:18:26;96967.13;;;9.85;100.00
10014;BME280;45684;48.358;10.746;2022-10-03T01:21:02;96973.84;;;9.88;100.00
10014;BME280;45684;48.358;10.746;2022-10-03T01:26:57;96965.38;;;9.94;100.00
10014;BME280;45684;48.358;10.746;2022-10-03T01:29:44;96969.38;;;9.97;100.00
10014;BME280;45684;48.358;10.746;2022-10-03T01:32:38;96977.41;;;10.02;100.00
10014;BME280;45684;48.358;10.746;2022-10-03T01:35:16;96968.50;;;10.02;100.00
10014;BME280;45684;48.358;10.746;2022-10-03T01:37:54;96979.31;;;10.02;100.00
10014;BME280;45684;48.358;10.746;2022-10-03T01:40:27;96983.34;;;10.04;100.00
10014;BME280;45684;48.358;10.746;2022-10-03T01:43:02;96981.44;;;10.05;100.00
10014;BME280;45684;48.358;10.746;2022-10-03T01:45:41;96993.06;;;10.05;100.00
10014;BME280;45684;48.358;10.746;2022-10-03T01:48:20;96991.16;;;10.06;100.00
10014;BME280;45684;48.358;10.746;2022-10-03T01:50:56;96998.44;;;10.05;100.00
10014;BME280;45684;48.358;10.746;2022-10-03T01:53:34;96995.44;;;10.07;100.00
10014;BME280;45684;48.358;10.746;2022-10-03T01:56:10;97000.06;;;10.06;100.00
10014;BME280;45684;48.358;10.746;2022-10-03T01:58:48;96994.66;;;10.06;100.00
10014;BME280;45684;48.358;10.746;2022-10-03T02:01:28;96990.56;;;10.09;100.00
10014;BME280;45684;48.358;10.746;2022-10-03T02:04:06;96997.88;;;10.08;100.00
10014;BME280;45684;48.358;10.746;2022-10-03T02:06:46;96988.97;;;10.08;100.00
10014;BME280;45684;48.358;10.746;2022-10-03T02:09:25;96987.66;;;10.05;100.00
10014;BME280;45684;48.358;10.746;2022-10-03T02:12:04;96984.44;;;10.03;100.00
10014;BME280;45684;48.358;10.746;2022-10-03T02:14:40;96990.41;;;10.00;100.00
10014;BME280;45684;48.358;10.746;2022-10-03T02:17:23;96992.91;;;9.96;100.00
10014;BME280;45684;48.358;10.746;2022-10-03T02:19:59;96989.69;;;9.94;100.00
10014;BME280;45684;48.358;10.746;2022-10-03T02:22:33;96989.47;;;9.91;100.00
10014;BME280;45684;48.358;10.746;2022-10-03T02:25:19;96992.16;;;9.91;100.00
10014;BME280;45684;48.358;10.746;2022-10-03T02:30:45;96998.44;;;9.86;100.00
10014;BME280;45684;48.358;10.746;2022-10-03T02:33:35;96996.31;;;9.83;100.00
10014;BME280;45684;48.358;10.746;2022-10-03T02:36:38;96998.50;;;9.81;100.00
10014;BME280;45684;48.358;10.746;2022-10-03T02:39:19;97003.41;;;9.79;100.00
10014;BME280;45684;48.358;10.746;2022-10-03T02:42:17;97005.88;;;9.76;100.00
10014;BME280;45684;48.358;10.746;2022-10-03T02:45:15;97011.41;;;9.65;100.00
10014;BME280;45684;48.358;10.746;2022-10-03T02:57:46;97018.13;;;9.44;100.00
10014;BME280;45684;48.358;10.746;2022-10-03T03:00:33;97022.50;;;9.40;100.00
10014;BME280;45684;48.358;10.746;2022-10-03T03:03:24;97017.41;;;9.38;100.00
10014;BME280;45684;48.358;10.746;2022-10-03T03:06:24;97022.25;;;9.36;100.00
10014;BME280;45684;48.358;10.746;2022-10-03T03:12:15;97028.34;;;9.23;100.00
10014;BME280;45684;48.358;10.746;2022-10-03T03:18:04;97032.94;;;9.23;100.00
10014;BME280;45684;48.358;10.746;2022-10-03T03:21:05;97036.19;;;9.25;100.00
10014;BME280;45684;48.358;10.746;2022-10-03T03:26:50;97050.28;;;9.16;100.00
10014;BME280;45684;48.358;10.746;2022-10-03T03:29:33;97046.03;;;9.10;100.00
10014;BME280;45684;48.358;10.746;2022-10-03T03:32:12;97046.88;;;9.06;100.00
10014;BME280;45684;48.358;10.746;2022-10-03T03:34:51;97050.94;;;9.03;100.00
10014;BME280;45684;48.358;10.746;2022-10-03T03:37:28;97057.69;;;9.06;100.00
10014;BME280;45684;48.358;10.746;2022-10-03T03:40:13;97052.00;;;9.07;100.00
10014;BME280;45684;48.358;10.746;2022-10-03T03:42:55;97051.44;;;9.10;100.00
10014;BME280;45684;48.358;10.746;2022-10-03T03:45:34;97049.25;;;9.12;100.00
10014;BME280;45684;48.358;10.746;2022-10-03T03:48:17;97047.06;;;9.14;100.00
10014;BME280;45684;48.358;10.746;2022-10-03T03:51:02;97051.38;;;9.15;100.00
10014;BME280;45684;48.358;10.746;2022-10-03T03:53:53;97054.38;;;9.14;100.00
10014;BME280;45684;48.358;10.746;2022-10-03T03:56:50;97052.47;;;9.14;100.00
10014;BME280;45684;48.358;10.746;2022-10-03T03:59:37;97041.69;;;9.14;100.00
10014;BME280;45684;48.358;10.746;2022-10-03T04:02:23;97043.84;;;9.12;100.00
10014;BME280;45684;48.358;10.746;2022-10-03T04:05:06;97046.84;;;9.11;100.00
10014;BME280;45684;48.358;10.746;2022-10-03T04:07:48;97042.28;;;9.06;100.00
10014;BME280;45684;48.358;10.746;2022-10-03T04:10:32;97042.34;;;9.01;100.00
10014;BME280;45684;48.358;10.746;2022-10-03T04:13:21;97037.75;;;9.02;100.00
10014;BME280;45684;48.358;10.746;2022-10-03T04:19:37;97032.81;;;9.09;100.00
10014;BME280;45684;48.358;10.746;2022-10-03T04:22:27;97031.19;;;9.08;100.00
10014;BME280;45684;48.358;10.746;2022-10-03T04:25:14;97035.47;;;9.14;100.00
10014;BME280;45684;48.358;10.746;2022-10-03T04:30:52;97033.84;;;9.13;100.00
10014;BME280;45684;48.358;10.746;2022-10-03T04:33:30;97037.34;;;9.13;100.00
10014;BME280;45684;48.358;10.746;2022-10-03T04:36:22;97037.88;;;9.15;100.00
10014;BME280;45684;48.358;10.746;2022-10-03T04:39:03;97042.47;;;9.15;100.00
10014;BME280;45684;48.358;10.746;2022-10-03T04:41:39;97041.09;;;9.17;100.00
10014;BME280;45684;48.358;10.746;2022-10-03T04:44:17;97028.69;;;9.16;100.00
10014;BME280;45684;48.358;10.746;2022-10-03T04:46:57;97037.88;;;9.15;100.00
10014;BME280;45684;48.358;10.746;2022-10-03T04:49:32;97037.34;;;9.13;100.00
10014;BME280;45684;48.358;10.746;2022-10-03T04:52:06;97041.72;;;9.09;100.00
10014;BME280;45684;48.358;10.746;2022-10-03T04:54:47;97040.63;;;9.10;100.00
10014;BME280;45684;48.358;10.746;2022-10-03T04:57:24;97043.59;;;9.09;100.00
10014;BME280;45684;48.358;10.746;2022-10-03T05:00:03;97043.59;;;9.09;100.00
10014;BME280;45684;48.358;10.746;2022-10-03T05:02:44;97036.03;;;9.11;100.00
10014;BME280;45684;48.358;10.746;2022-10-03T05:05:25;97045.00;;;9.06;100.00
10014;BME280;45684;48.358;10.746;2022-10-03T05:08:02;97040.44;;;9.02;100.00
10014;BME280;45684;48.358;10.746;2022-10-03T05:10:49;97044.25;;;9.01;100.00
10014;BME280;45684;48.358;10.746;2022-10-03T05:13:32;97051.00;;;8.98;100.00
10014;BME280;45684;48.358;10.746;2022-10-03T05:16:13;97057.47;;;8.97;100.00
10014;BME280;45684;48.358;10.746;2022-10-03T05:18:46;97049.38;;;8.97;100.00
10014;BME280;45684;48.358;10.746;2022-10-03T05:21:26;97059.09;;;8.98;100.00
10014;BME280;45684;48.358;10.746;2022-10-03T05:24:02;97058.00;;;8.99;100.00
10014;BME280;45684;48.358;10.746;2022-10-03T05:26:52;97057.44;;;9.02;100.00
10014;BME280;45684;48.358;10.746;2022-10-03T05:29:31;97065.28;;;8.99;100.00
10014;BME280;45684;48.358;10.746;2022-10-03T05:32:12;97072.88;;;8.97;100.00
10014;BME280;45684;48.358;10.746;2022-10-03T05:34:59;97072.06;;;8.96;100.00
10014;BME280;45684;48.358;10.746;2022-10-03T05:37:46;97074.19;;;8.99;100.00
10014;BME280;45684;48.358;10.746;2022-10-03T05:40:20;97082.56;;;8.98;100.00
10014;BME280;45684;48.358;10.746;2022-10-03T05:43:22;97082.91;;;8.91;100.00
10014;BME280;45684;48.358;10.746;2022-10-03T05:46:00;97091.25;;;8.89;100.00
10014;BME280;45684;48.358;10.746;2022-10-03T05:48:37;97091.25;;;8.89;100.00
10014;BME280;45684;48.358;10.746;2022-10-03T05:51:45;97097.44;;;8.90;100.00
10014;BME280;45684;48.358;10.746;2022-10-03T05:54:43;97104.44;;;8.96;100.00
10014;BME280;45684;48.358;10.746;2022-10-03T05:57:37;97099.00;;;9.01;100.00
10014;BME280;45684;48.358;10.746;2022-10-03T06:00:17;97103.28;;;9.02;100.00
10014;BME280;45684;48.358;10.746;2022-10-03T06:03:18;97107.56;;;9.08;100.00
10014;BME280;45684;48.358;10.746;2022-10-03T06:05:59;97111.28;;;9.12;100.00
10014;BME280;45684;48.358;10.746;2022-10-03T06:08:50;97108.66;;;9.07;100.00
10014;BME280;45684;48.358;10.746;2022-10-03T06:11:37;97117.84;;;9.06;100.00
10014;BME280;45684;48.358;10.746;2022-10-03T06:14:31;97119.72;;;9.06;100.00
10014;BME280;45684;48.358;10.746;2022-10-03T06:17:21;97115.69;;;9.03;100.00
10014;BME280;45684;48.358;10.746;2022-10-03T06:20:03;97123.22;;;9.06;100.00
10014;BME280;45684;48.358;10.746;2022-10-03T06:23:15;97128.78;;;9.20;100.00
10014;BME280;45684;48.358;10.746;2022-10-03T06:26:07;97134.69;;;9.22;100.00
10014;BME280;45684;48.358;10.746;2022-10-03T06:32:08;97131.94;;;9.27;100.00
10014;BME280;45684;48.358;10.746;2022-10-03T06:34:53;97135.94;;;9.35;100.00
10014;BME280;45684;48.358;10.746;2022-10-03T06:37:46;97135.69;;;9.31;100.00
10014;BME280;45684;48.358;10.746;2022-10-03T06:49:29;97144.78;;;9.40;100.00
10014;BME280;45684;48.358;10.746;2022-10-03T06:52:12;97144.47;;;9.47;100.00
10014;BME280;45684;48.358;10.746;2022-10-03T06:55:03;97146.47;;;9.60;100.00
10014;BME280;45684;48.358;10.746;2022-10-03T06:58:10;97148.25;;;9.75;100.00
10014;BME280;45684;48.358;10.746;2022-10-03T07:00:54;97147.53;;;9.88;100.00
10014;BME280;45684;48.358;10.746;2022-10-03T07:03:37;97148.25;;;9.99;100.00
10014;BME280;45684;48.358;10.746;2022-10-03T07:06:28;97158.44;;;10.07;100.00
10014;BME280;45684;48.358;10.746;2022-10-03T07:09:44;97158.00;;;10.19;100.00
10014;BME280;45684;48.358;10.746;2022-10-03T07:12:53;97155.13;;;10.34;100.00
10014;BME280;45684;48.358;10.746;2022-10-03T07:16:01;97147.47;;;10.41;100.00
10014;BME280;45684;48.358;10.746;2022-10-03T07:19:08;97150.53;;;10.54;100.00
10014;BME280;45684;48.358;10.746;2022-10-03T07:28:15;97159.63;;;11.01;100.00
10014;BME280;45684;48.358;10.746;2022-10-03T07:30:56;97162.38;;;11.14;100.00
10014;BME280;45684;48.358;10.746;2022-10-03T07:33:52;97170.28;;;11.30;100.00
10014;BME280;45684;48.358;10.746;2022-10-03T07:36:32;97172.59;;;11.36;100.00
10014;BME280;45684;48.358;10.746;2022-10-03T07:39:59;97178.41;;;11.30;100.00
10014;BME280;45684;48.358;10.746;2022-10-03T07:42:46;97182.78;;;11.26;100.00
10014;BME280;45684;48.358;10.746;2022-10-03T07:45:38;97180.63;;;11.41;100.00
10014;BME280;45684;48.358;10.746;2022-10-03T07:51:12;97185.59;;;11.53;100.00
10014;BME280;45684;48.358;10.746;2022-10-03T07:56:54;97189.19;;;11.48;100.00
10014;BME280;45684;48.358;10.746;2022-10-03T07:59:57;97194.03;;;11.65;100.00
10014;BME280;45684;48.358;10.746;2022-10-03T08:02:55;97196.78;;;11.79;100.00
10014;BME280;45684;48.358;10.746;2022-10-03T08:05:42;97194.94;;;11.93;100.00
10014;BME280;45684;48.358;10.746;2022-10-03T08:08:40;97198.75;;;12.06;100.00
10014;BME280;45684;48.358;10.746;2022-10-03T08:11:31;97210.22;;;12.17;100.00
10014;BME280;45684;48.358;10.746;2022-10-03T08:14:16;97207.91;;;12.24;100.00
10014;BME280;45684;48.358;10.746;2022-10-03T08:17:13;97210.03;;;12.27;100.00
10014;BME280;45684;48.358;10.746;2022-10-03T08:20:03;97219.56;;;12.24;100.00
10014;BME280;45684;48.358;10.746;2022-10-03T08:22:45;97211.63;;;12.28;100.00
10014;BME280;45684;48.358;10.746;2022-10-03T08:25:28;97214.66;;;12.27;100.00
10014;BME280;45684;48.358;10.746;2022-10-03T08:28:29;97212.84;;;12.36;100.00
10014;BME280;45684;48.358;10.746;2022-10-03T08:34:37;97224.50;;;12.50;100.00
10014;BME280;45684;48.358;10.746;2022-10-03T08:37:33;97227.59;;;12.43;100.00
10014;BME280;45684;48.358;10.746;2022-10-03T08:40:46;97219.78;;;12.42;100.00
10014;BME280;45684;48.358;10.746;2022-10-03T08:43:40;97216.38;;;12.50;100.00
10014;BME280;45684;48.358;10.746;2022-10-03T08:46:35;97226.22;;;12.60;100.00
10014;BME280;45684;48.358;10.746;2022-10-03T08:52:16;97217.25;;;12.73;100.00
10014;BME280;45684;48.358;10.746;2022-10-03T08:55:11;97217.84;;;12.70;100.00
10014;BME280;45684;48.358;10.746;2022-10-03T08:58:09;97225.09;;;12.74;100.00
10014;BME280;45684;48.358;10.746;2022-10-03T09:07:05;97220.97;;;13.13;100.00
10014;BME280;45684;48.358;10.746;2022-10-03T09:19:08;97220.34;;;13.75;100.00
10014;BME280;45684;48.358;10.746;2022-10-03T09:22:03;97220.25;;;13.89;100.00
10014;BME280;45684;48.358;10.746;2022-10-03T09:25:01;97216.25;;;13.86;100.00
10014;BME280;45684;48.358;10.746;2022-10-03T09:30:28;97218.84;;;13.91;100.00
10014;BME280;45684;48.358;10.746;2022-10-03T09:36:38;97215.53;;;13.72;100.00
10014;BME280;45684;48.358;10.746;2022-10-03T09:42:32;97211.81;;;14.30;100.00
10014;BME280;45684;48.358;10.746;2022-10-03T09:48:35;97224.31;;;14.71;100.00
10014;BME280;45684;48.358;10.746;2022-10-03T09:51:35;97234.22;;;14.67;100.00
10014;BME280;45684;48.358;10.746;2022-10-03T09:54:39;97226.69;;;14.55;100.00
10014;BME280;45684;48.358;10.746;2022-10-03T09:57:26;97223.66;;;14.65;100.00
10014;BME280;45684;48.358;10.746;2022-10-03T10:00:15;97218.72;;;14.76;100.00
10014;BME280;45684;48.358;10.746;2022-10-03T10:03:13;97211.69;;;15.01;100.00
10014;BME280;45684;48.358;10.746;2022-10-03T10:05:56;97219.09;;;15.61;100.00
10014;BME280;45684;48.358;10.746;2022-10-03T10:08:46;97216.50;;;15.91;100.00
10014;BME280;45684;48.358;10.746;2022-10-03T10:11:28;97215.50;;;16.04;100.00
10014;BME280;45684;48.358;10.746;2022-10-03T10:14:21;97217.41;;;16.03;100.00
10014;BME280;45684;48.358;10.746;2022-10-03T10:20:19;97215.91;;;15.33;100.00
10014;BME280;45684;48.358;10.746;2022-10-03T10:23:24;97217.97;;;15.27;100.00
10014;BME280;45684;48.358;10.746;2022-10-03T10:26:17;97212.69;;;15.31;100.00
10014;BME280;45684;48.358;10.746;2022-10-03T10:47:37;97204.16;;;17.95;99.35
10014;BME280;45684;48.358;10.746;2022-10-03T10:56:57;97205.41;;;17.44;94.47
10014;BME280;45684;48.358;10.746;2022-10-03T11:06:42;97208.47;;;18.78;76.83
10014;BME280;45684;48.358;10.746;2022-10-03T11:09:44;97193.06;;;19.67;76.99
10014;BME280;45684;48.358;10.746;2022-10-03T11:12:39;97191.66;;;20.01;67.27
10014;BME280;45684;48.358;10.746;2022-10-03T11:27:38;97183.53;;;19.76;66.83
10014;BME280;45684;48.358;10.746;2022-10-03T11:30:22;97194.47;;;19.88;66.01
10014;BME280;45684;48.358;10.746;2022-10-03T11:33:30;97177.88;;;19.29;70.43
10014;BME280;45684;48.358;10.746;2022-10-03T11:39:14;97180.41;;;17.87;81.74
10014;BME280;45684;48.358;10.746;2022-10-03T11:41:53;97182.00;;;17.67;85.18
10014;BME280;45684;48.358;10.746;2022-10-03T11:44:26;97194.53;;;17.77;88.21
10014;BME280;45684;48.358;10.746;2022-10-03T11:47:22;97190.00;;;17.60;86.36
10014;BME280;45684;48.358;10.746;2022-10-03T11:50:10;97187.94;;;18.72;89.31
10014;BME280;45684;48.358;10.746;2022-10-03T11:52:56;97184.41;;;19.65;86.08
10014;BME280;45684;48.358;10.746;2022-10-03T11:55:31;97178.03;;;20.20;82.32
10014;BME280;45684;48.358;10.746;2022-10-03T11:58:11;97184.13;;;20.61;75.91
10014;BME280;45684;48.358;10.746;2022-10-03T12:00:50;97179.19;;;20.35;65.55
10014;BME280;45684;48.358;10.746;2022-10-03T12:03:24;97181.56;;;20.36;57.98
10014;BME280;45684;48.358;10.746;2022-10-03T12:05:57;97180.91;;;20.91;64.27
10014;BME280;45684;48.358;10.746;2022-10-03T12:08:42;97166.22;;;21.57;64.36
10014;BME280;45684;48.358;10.746;2022-10-03T12:11:25;97166.16;;;21.96;62.47
10014;BME280;45684;48.358;10.746;2022-10-03T12:14:10;97172.16;;;21.78;60.25
10014;BME280;45684;48.358;10.746;2022-10-03T12:16:53;97169.22;;;21.13;63.89
10014;BME280;45684;48.358;10.746;2022-10-03T12:19:27;97162.78;;;20.38;63.19
10014;BME280;45684;48.358;10.746;2022-10-03T12:22:03;97159.97;;;20.19;65.50
10014;BME280;45684;48.358;10.746;2022-10-03T12:24:38;97162.34;;;20.52;69.45
10014;BME280;45684;48.358;10.746;2022-10-03T12:27:16;97153.53;;;20.78;68.71
10014;BME280;45684;48.358;10.746;2022-10-03T12:29:54;97149.56;;;20.44;68.90
10014;BME280;45684;48.358;10.746;2022-10-03T12:32:39;97148.03;;;19.83;63.48
10014;BME280;45684;48.358;10.746;2022-10-03T12:35:23;97157.13;;;19.44;68.93
10014;BME280;45684;48.358;10.746;2022-10-03T12:38:05;97154.94;;;19.21;70.63
10014;BME280;45684;48.358;10.746;2022-10-03T12:40:38;97146.38;;;18.70;73.17
10014;BME280;45684;48.358;10.746;2022-10-03T12:43:27;97153.53;;;18.50;80.02
10014;BME280;45684;48.358;10.746;2022-10-03T12:46:02;97149.88;;;18.58;78.63
10014;BME280;45684;48.358;10.746;2022-10-03T12:48:44;97149.84;;;19.07;78.86
10014;BME280;45684;48.358;10.746;2022-10-03T12:51:21;97141.88;;;19.58;78.75
10014;BME280;45684;48.358;10.746;2022-10-03T12:54:06;97144.88;;;20.13;76.37
10014;BME280;45684;48.358;10.746;2022-10-03T12:56:42;97137.94;;;20.67;73.75
10014;BME280;45684;48.358;10.746;2022-10-03T12:59:20;97150.09;;;21.01;67.07
10014;BME280;45684;48.358;10.746;2022-10-03T13:02:22;97148.75;;;20.75;64.33
10014;BME280;45684;48.358;10.746;2022-10-03T13:05:06;97151.44;;;19.93;64.68
10014;BME280;45684;48.358;10.746;2022-10-03T13:07:49;97161.22;;;19.50;68.13
10014;BME280;45684;48.358;10.746;2022-10-03T13:10:25;97152.00;;;19.02;73.34
10014;BME280;45684;48.358;10.746;2022-10-03T13:13:07;97152.28;;;18.84;70.85
10014;BME280;45684;48.358;10.746;2022-10-03T13:15:45;97150.34;;;18.73;75.26
10014;BME280;45684;48.358;10.746;2022-10-03T13:18:41;97145.09;;;18.43;78.30
10014;BME280;45684;48.358;10.746;2022-10-03T13:21:16;97151.38;;;18.31;79.32
10014;BME280;45684;48.358;10.746;2022-10-03T13:24:09;97137.22;;;18.05;82.16
10014;BME280;45684;48.358;10.746;2022-10-03T13:26:52;97142.09;;;17.87;83.00
10014;BME280;45684;48.358;10.746;2022-10-03T13:29:25;97129.00;;;17.93;83.92
10014;BME280;45684;48.358;10.746;2022-10-03T13:32:15;97132.38;;;17.77;84.00
10014;BME280;45684;48.358;10.746;2022-10-03T13:34:58;97119.00;;;17.64;85.27
10014;BME280;45684;48.358;10.746;2022-10-03T13:38:15;97124.69;;;17.58;77.57
10014;BME280;45684;48.358;10.746;2022-10-03T13:40:47;97130.59;;;17.94;77.15
10014;BME280;45684;48.358;10.746;2022-10-03T13:43:23;97116.22;;;18.21;72.57
10014;BME280;45684;48.358;10.746;2022-10-03T13:45:53;97120.47;;;18.19;75.25
10014;BME280;45684;48.358;10.746;2022-10-03T13:48:25;97119.88;;;18.25;75.41
10014;BME280;45684;48.358;10.746;2022-10-03T13:50:57;97123.78;;;18.24;70.35
10014;BME280;45684;48.358;10.746;2022-10-03T13:53:49;97130.97;;;18.29;68.41
10014;BME280;45684;48.358;10.746;2022-10-03T13:56:33;97135.66;;;18.28;69.79
10014;BME280;45684;48.358;10.746;2022-10-03T13:59:14;97130.25;;;18.32;68.54
10014;BME280;45684;48.358;10.746;2022-10-03T14:01:55;97128.53;;;18.27;74.81
10014;BME280;45684;48.358;10.746;2022-10-03T14:04:46;97129.25;;;18.24;70.68
10014;BME280;45684;48.358;10.746;2022-10-03T14:07:28;97132.44;;;18.39;72.60
10014;BME280;45684;48.358;10.746;2022-10-03T14:10:28;97124.22;;;18.39;65.47
10014;BME280;45684;48.358;10.746;2022-10-03T14:13:16;97128.34;;;18.20;68.94
10014;BME280;45684;48.358;10.746;2022-10-03T14:15:51;97129.25;;;18.24;71.25
10014;BME280;45684;48.358;10.746;2022-10-03T14:18:36;97124.31;;;17.93;67.84
10014;BME280;45684;48.358;10.746;2022-10-03T14:24:26;97120.94;;;17.63;76.78
10014;BME280;45684;48.358;10.746;2022-10-03T14:27:19;97111.75;;;17.47;79.36
10014;BME280;45684;48.358;10.746;2022-10-03T14:29:55;97111.81;;;17.26;82.31
10014;BME280;45684;48.358;10.746;2022-10-03T14:32:31;97116.16;;;17.06;79.28
10014;BME280;45684;48.358;10.746;2022-10-03T14:35:29;97115.16;;;16.90;84.62
10014;BME280;45684;48.358;10.746;2022-10-03T14:38:14;97106.38;;;16.84;83.95
10014;BME280;45684;48.358;10.746;2022-10-03T14:40:48;97111.56;;;16.77;86.28
10014;BME280;45684;48.358;10.746;2022-10-03T14:43:32;97102.56;;;16.76;89.06
10014;BME280;45684;48.358;10.746;2022-10-03T14:46:04;97111.38;;;16.82;90.31
10014;BME280;45684;48.358;10.746;2022-10-03T14:48:36;97108.13;;;16.89;91.24
10014;BME280;45684;48.358;10.746;2022-10-03T14:51:11;97110.31;;;16.95;91.92
10014;BME280;45684;48.358;10.746;2022-10-03T14:53:45;97105.97;;;16.94;91.11
10014;BME280;45684;48.358;10.746;2022-10-03T14:56:18;97103.59;;;16.93;91.68
10014;BME280;45684;48.358;10.746;2022-10-03T14:58:49;97101.03;;;16.88;91.18
10014;BME280;45684;48.358;10.746;2022-10-03T15:01:20;97096.41;;;16.58;85.09
10014;BME280;45684;48.358;10.746;2022-10-03T15:03:59;97106.03;;;16.35;85.88
10014;BME280;45684;48.358;10.746;2022-10-03T15:06:48;97099.81;;;16.26;88.24
10014;BME280;45684;48.358;10.746;2022-10-03T15:09:22;97093.47;;;16.13;89.70
10014;BME280;45684;48.358;10.746;2022-10-03T15:11:54;97091.63;;;15.96;89.18
10014;BME280;45684;48.358;10.746;2022-10-03T15:14:30;97095.00;;;15.93;91.42
10014;BME280;45684;48.358;10.746;2022-10-03T15:17:03;97089.09;;;15.91;94.23
10014;BME280;45684;48.358;10.746;2022-10-03T15:19:36;97086.66;;;15.90;95.35
10014;BME280;45684;48.358;10.746;2022-10-03T15:22:20;97088.28;;;15.91;97.67
10014;BME280;45684;48.358;10.746;2022-10-03T15:24:50;97091.97;;;15.95;99.83
10014;BME280;45684;48.358;10.746;2022-10-03T15:27:22;97086.50;;;15.95;100.00
10014;BME280;45684;48.358;10.746;2022-10-03T15:29:54;97087.31;;;15.95;100.00
10014;BME280;45684;48.358;10.746;2022-10-03T15:32:26;97088.13;;;15.87;100.00
10014;BME280;45684;48.358;10.746;2022-10-03T15:34:58;97089.63;;;15.76;98.50
10014;BME280;45684;48.358;10.746;2022-10-03T15:37:30;97088.88;;;15.58;97.93
10014;BME280;45684;48.358;10.746;2022-10-03T15:40:05;97089.69;;;15.50;99.47
10014;BME280;45684;48.358;10.746;2022-10-03T15:42:48;97080.22;;;15.39;100.00
10014;BME280;45684;48.358;10.746;2022-10-03T15:45:23;97082.50;;;15.28;100.00
10014;BME280;45684;48.358;10.746;2022-10-03T15:47:55;97080.94;;;15.18;100.00
10014;BME280;45684;48.358;10.746;2022-10-03T15:50:27;97084.47;;;15.10;100.00
10014;BME280;45684;48.358;10.746;2022-10-03T15:52:57;97077.91;;;15.02;100.00
10014;BME280;45684;48.358;10.746;2022-10-03T15:55:48;97077.91;;;14.94;100.00
10014;BME280;45684;48.358;10.746;2022-10-03T15:58:19;97090.41;;;14.86;100.00
10014;BME280;45684;48.358;10.746;2022-10-03T16:01:00;97089.94;;;14.75;100.00
10014;BME280;45684;48.358;10.746;2022-10-03T16:03:33;97081.28;;;14.73;100.00
10014;BME280;45684;48.358;10.746;2022-10-03T16:06:08;97080.78;;;14.63;100.00
10014;BME280;45684;48.358;10.746;2022-10-03T16:08:53;97087.19;;;14.49;100.00
10014;BME280;45684;48.358;10.746;2022-10-03T16:11:25;97082.81;;;14.40;100.00
10014;BME280;45684;48.358;10.746;2022-10-03T16:14:08;97080.09;;;14.31;100.00
10014;BME280;45684;48.358;10.746;2022-10-03T16:16:41;97086.16;;;14.19;100.00
10014;BME280;45684;48.358;10.746;2022-10-03T16:19:22;97093.00;;;14.08;100.00
10014;BME280;45684;48.358;10.746;2022-10-03T16:21:55;97090.41;;;13.94;100.00
10014;BME280;45684;48.358;10.746;2022-10-03T16:24:31;97090.66;;;13.84;100.00
10014;BME280;45684;48.358;10.746;2022-10-03T16:27:07;97081.53;;;13.71;100.00
10014;BME280;45684;48.358;10.746;2022-10-03T16:29:42;97093.03;;;13.68;100.00
10014;BME280;45684;48.358;10.746;2022-10-03T16:32:19;97090.75;;;13.62;100.00
10014;BME280;45684;48.358;10.746;2022-10-03T16:34:49;97088.78;;;13.53;100.00
10014;BME280;45684;48.358;10.746;2022-10-03T16:37:19;97083.31;;;13.45;100.00
10014;BME280;45684;48.358;10.746;2022-10-03T16:39:54;97076.41;;;13.39;100.00